Time;durP1;ratioP1;P1;durP2;ratioP2;P2;SDS_P1;SDS_P2;PMS_P1;PMS_P2;Temp;Humidity;BMP_temperature;BMP_pressure;BME280_temperature;BME280_humidity;BME280_pressure;Samples;Min_cycle;Max_cycle;Signal;HPM_P1;HPM_P2
2023/01/08 00:01:18;;;;;;;1.67;1.20;;;11.40;99.90;;;;;;5043232;28;20973;-74
2023/01/08 00:03:46;;;;;;;8.30;1.40;;;11.40;99.90;;;;;;5042850;28;20498;-74
2023/01/08 00:06:17;;;;;;;1.87;1.30;;;11.40;99.90;;;;;;5046467;28;20501;-74
2023/01/08 00:08:47;;;;;;;4.37;1.60;;;11.40;99.90;;;;;;5046338;28;21108;-74
2023/01/08 00:11:14;;;;;;;1.43;1.30;;;11.40;99.90;;;;;;5048734;28;20462;-74
2023/01/08 00:13:41;;;;;;;1.23;1.00;;;11.50;99.90;;;;;;5041390;28;20528;-74
2023/01/08 00:16:16;;;;;;;3.13;1.70;;;11.40;99.90;;;;;;5050335;28;20509;-74
2023/01/08 00:18:43;;;;;;;3.60;1.57;;;11.40;99.90;;;;;;5045028;28;20486;-74
2023/01/08 00:21:12;;;;;;;1.87;1.20;;;11.30;99.90;;;;;;5047000;28;20458;-74
2023/01/08 00:23:40;;;;;;;1.40;1.03;;;11.30;99.90;;;;;;5041629;28;20497;-74
2023/01/08 00:26:09;;;;;;;1.30;1.10;;;11.30;99.90;;;;;;5041626;28;20562;-74
2023/01/08 00:28:38;;;;;;;1.57;1.20;;;11.30;99.90;;;;;;5047770;28;20611;-75
2023/01/08 00:31:05;;;;;;;1.53;1.10;;;11.30;99.90;;;;;;5045831;28;20455;-74
2023/01/08 00:33:32;;;;;;;2.03;1.43;;;11.40;99.90;;;;;;5048656;28;20441;-74
2023/01/08 00:36:01;;;;;;;1.63;1.27;;;11.40;99.90;;;;;;5052474;28;20474;-74
2023/01/08 00:38:30;;;;;;;1.57;1.17;;;11.40;99.90;;;;;;5047028;28;20565;-74
2023/01/08 00:40:56;;;;;;;1.23;1.00;;;11.30;99.90;;;;;;5045942;28;20489;-74
2023/01/08 00:43:23;;;;;;;4.83;1.93;;;11.30;99.90;;;;;;5046701;28;20515;-75
2023/01/08 00:45:52;;;;;;;1.77;1.10;;;11.30;99.90;;;;;;5048865;28;20542;-74
2023/01/08 00:48:21;;;;;;;1.10;0.83;;;11.30;99.90;;;;;;5042812;28;20572;-75
2023/01/08 00:50:48;;;;;;;1.47;1.10;;;11.30;99.90;;;;;;5047048;28;20541;-74
2023/01/08 00:53:15;;;;;;;2.40;1.07;;;11.30;99.90;;;;;;5045746;28;20898;-75
2023/01/08 00:55:43;;;;;;;2.43;1.33;;;11.30;99.90;;;;;;5053246;28;20470;-75
2023/01/08 00:58:10;;;;;;;1.80;1.10;;;11.40;99.90;;;;;;5050953;28;20470;-74
2023/01/08 01:00:37;;;;;;;1.40;1.10;;;11.40;99.90;;;;;;5047845;28;20488;-74
2023/01/08 01:03:04;;;;;;;1.70;1.07;;;11.30;99.90;;;;;;5051290;28;20500;-74
2023/01/08 01:05:31;;;;;;;2.93;1.83;;;11.20;99.90;;;;;;5049203;28;20525;-75
2023/01/08 01:07:58;;;;;;;2.77;1.30;;;11.30;99.90;;;;;;5048700;28;20535;-74
2023/01/08 01:10:27;;;;;;;1.30;1.13;;;11.30;99.90;;;;;;5047065;28;20517;-74
2023/01/08 01:12:56;;;;;;;2.40;1.30;;;11.30;99.90;;;;;;5051904;28;20991;-75
2023/01/08 01:15:23;;;;;;;1.93;0.87;;;11.30;99.90;;;;;;5045973;28;20456;-74
2023/01/08 01:17:50;;;;;;;1.30;1.20;;;11.20;99.90;;;;;;5039555;28;20581;-74
2023/01/08 01:20:17;;;;;;;1.90;1.03;;;11.20;99.90;;;;;;5044429;28;20489;-74
2023/01/08 01:22:44;;;;;;;1.50;0.83;;;11.30;99.90;;;;;;5044285;28;20473;-74
2023/01/08 01:25:11;;;;;;;1.20;1.10;;;11.30;99.90;;;;;;5046328;28;20441;-74
2023/01/08 01:27:38;;;;;;;1.20;0.90;;;11.30;99.90;;;;;;5044443;28;20465;-74
2023/01/08 01:30:09;;;;;;;1.83;1.47;;;11.40;99.90;;;;;;5026123;28;21020;-75
2023/01/08 01:32:38;;;;;;;2.03;1.30;;;11.40;99.90;;;;;;5045326;28;20462;-75
2023/01/08 01:35:06;;;;;;;1.30;1.03;;;11.30;99.90;;;;;;5043785;28;20981;-76
2023/01/08 01:37:33;;;;;;;1.70;1.60;;;11.30;99.90;;;;;;5044316;28;20463;-75
2023/01/08 01:40:02;;;;;;;1.40;1.30;;;11.30;99.90;;;;;;5054492;28;20478;-75
2023/01/08 01:42:42;;;;;;;1.27;0.93;;;11.30;99.90;;;;;;5045770;28;21102;-75
2023/01/08 01:45:19;;;;;;;2.17;1.63;;;11.20;99.90;;;;;;5046350;28;20429;-75
2023/01/08 01:47:50;;;;;;;1.57;1.27;;;11.10;99.90;;;;;;5045385;28;20548;-76
2023/01/08 01:50:21;;;;;;;1.90;1.37;;;11.20;99.90;;;;;;5042702;28;20454;-75
2023/01/08 01:52:54;;;;;;;1.23;1.00;;;11.20;99.90;;;;;;5044384;28;20552;-75
2023/01/08 01:55:21;;;;;;;1.40;1.10;;;11.20;99.90;;;;;;5046542;28;20437;-75
2023/01/08 01:57:53;;;;;;;1.73;1.20;;;11.30;99.90;;;;;;5050693;28;20491;-75
2023/01/08 02:00:22;;;;;;;1.10;0.97;;;11.30;99.90;;;;;;5042961;28;21029;-75
2023/01/08 02:02:50;;;;;;;1.50;1.20;;;11.30;99.90;;;;;;5046684;28;20525;-75
2023/01/08 02:05:17;;;;;;;1.50;0.90;;;11.30;99.90;;;;;;5046309;28;20488;-75
2023/01/08 02:07:52;;;;;;;2.53;1.70;;;11.30;99.90;;;;;;5043895;28;20544;-75
2023/01/08 02:10:26;;;;;;;1.27;1.00;;;11.30;99.90;;;;;;5042558;28;20433;-75
2023/01/08 02:12:58;;;;;;;1.37;1.07;;;11.20;99.90;;;;;;5048735;28;20460;-75
2023/01/08 02:15:34;;;;;;;1.77;1.47;;;11.30;99.90;;;;;;5045168;28;20431;-75
2023/01/08 02:18:05;;;;;;;1.93;1.10;;;11.30;99.90;;;;;;5039394;28;20480;-75
2023/01/08 02:20:37;;;;;;;1.60;1.10;;;11.40;99.90;;;;;;5044209;28;21014;-75
2023/01/08 02:23:20;;;;;;;2.50;1.13;;;11.30;99.90;;;;;;5027702;28;20474;-75
2023/01/08 02:26:23;;;;;;;1.87;1.23;;;11.40;99.90;;;;;;5047006;28;20959;-75
2023/01/08 02:28:55;;;;;;;1.50;1.20;;;11.40;99.90;;;;;;5040544;28;20516;-75
2023/01/08 02:31:24;;;;;;;2.30;1.30;;;11.40;99.90;;;;;;5037638;28;20461;-75
2023/01/08 02:33:52;;;;;;;1.97;1.23;;;11.40;99.90;;;;;;5043971;28;20444;-75
2023/01/08 02:36:33;;;;;;;1.40;1.20;;;11.30;99.90;;;;;;5046003;28;20462;-75
2023/01/08 02:39:12;;;;;;;2.27;1.10;;;11.30;99.90;;;;;;5043167;28;20565;-74
2023/01/08 02:41:53;;;;;;;1.10;0.90;;;11.30;99.90;;;;;;5047864;28;20846;-74
2023/01/08 02:44:27;;;;;;;1.40;1.20;;;11.20;99.90;;;;;;5044965;28;20458;-74
2023/01/08 02:46:56;;;;;;;2.90;1.43;;;11.30;99.90;;;;;;5044671;28;20453;-75
2023/01/08 02:49:28;;;;;;;1.63;1.30;;;11.10;99.90;;;;;;5056133;28;20524;-74
2023/01/08 02:51:57;;;;;;;1.77;1.23;;;11.20;99.90;;;;;;5047366;28;20863;-74
2023/01/08 02:54:28;;;;;;;3.57;1.53;;;11.30;99.90;;;;;;5047800;28;20482;-74
2023/01/08 02:57:01;;;;;;;1.97;1.30;;;11.20;99.90;;;;;;5045360;28;20547;-74
2023/01/08 02:59:32;;;;;;;1.57;1.20;;;11.20;99.90;;;;;;5050681;28;20549;-74
2023/01/08 03:02:00;;;;;;;1.70;1.10;;;11.10;99.90;;;;;;5054197;28;20458;-74
2023/01/08 03:04:31;;;;;;;1.10;1.00;;;11.20;99.90;;;;;;5050469;28;20519;-74
2023/01/08 03:06:57;;;;;;;2.67;1.73;;;11.20;99.90;;;;;;5050808;28;20527;-74
2023/01/08 03:09:24;;;;;;;1.57;1.23;;;11.20;99.90;;;;;;5037863;28;20467;-74
2023/01/08 03:11:54;;;;;;;6.13;2.43;;;11.10;99.90;;;;;;5046011;28;20545;-74
2023/01/08 03:14:28;;;;;;;2.20;1.60;;;11.00;99.90;;;;;;5045799;28;20508;-74
2023/01/08 03:17:00;;;;;;;1.40;1.23;;;11.00;99.90;;;;;;5045574;28;20523;-74
2023/01/08 03:19:32;;;;;;;3.07;1.43;;;11.00;99.90;;;;;;5051071;28;20443;-74
2023/01/08 03:22:02;;;;;;;1.30;1.20;;;10.90;99.90;;;;;;5046610;28;20473;-75
2023/01/08 03:24:33;;;;;;;1.40;1.13;;;10.90;99.90;;;;;;5042387;28;20462;-74
2023/01/08 03:27:04;;;;;;;2.10;1.10;;;10.90;99.90;;;;;;5039726;28;20450;-74
2023/01/08 03:29:34;;;;;;;1.83;1.27;;;11.00;99.90;;;;;;5042437;28;20545;-74
2023/01/08 03:32:04;;;;;;;2.93;1.37;;;10.90;99.90;;;;;;5042096;28;20449;-75
2023/01/08 03:34:33;;;;;;;0.97;0.77;;;11.00;99.90;;;;;;5038380;28;20521;-74
2023/01/08 03:37:04;;;;;;;2.30;1.37;;;10.90;99.90;;;;;;5042388;28;20959;-75
2023/01/08 03:39:38;;;;;;;1.20;0.90;;;10.90;99.90;;;;;;5045689;28;20862;-75
2023/01/08 03:42:10;;;;;;;2.37;1.47;;;10.90;99.90;;;;;;5048503;28;20470;-73
2023/01/08 03:44:39;;;;;;;1.33;1.23;;;10.80;99.90;;;;;;5045043;28;21107;-73
2023/01/08 03:47:09;;;;;;;1.90;1.33;;;10.80;99.90;;;;;;5049348;28;20489;-74
2023/01/08 03:49:39;;;;;;;1.40;1.20;;;10.90;99.90;;;;;;5045774;28;20460;-73
2023/01/08 03:52:06;;;;;;;1.93;1.00;;;10.90;99.90;;;;;;5047130;28;20469;-73
2023/01/08 03:54:36;;;;;;;1.93;1.27;;;10.90;99.90;;;;;;5049073;28;20550;-73
2023/01/08 03:57:03;;;;;;;1.20;1.07;;;10.70;99.90;;;;;;5048728;28;20458;-73
2023/01/08 03:59:30;;;;;;;1.57;1.47;;;10.80;99.90;;;;;;5046060;28;20500;-74
2023/01/08 04:01:58;;;;;;;1.10;0.90;;;10.80;99.90;;;;;;5044848;28;21006;-74
2023/01/08 04:04:26;;;;;;;1.70;1.03;;;10.80;99.90;;;;;;5049894;28;20463;-74
2023/01/08 04:06:56;;;;;;;1.63;1.33;;;10.80;99.90;;;;;;5048409;28;20997;-74
2023/01/08 04:09:22;;;;;;;1.97;1.33;;;10.80;99.90;;;;;;5045179;28;20467;-74
2023/01/08 04:11:49;;;;;;;1.60;1.10;;;10.80;99.90;;;;;;5049315;28;20433;-74
2023/01/08 04:14:17;;;;;;;1.87;1.33;;;10.80;99.90;;;;;;5046955;28;20803;-73
2023/01/08 04:16:46;;;;;;;2.80;1.43;;;10.70;99.90;;;;;;5046423;28;20435;-73
2023/01/08 04:19:15;;;;;;;1.67;1.20;;;10.80;99.90;;;;;;5051433;28;20858;-73
2023/01/08 04:21:42;;;;;;;2.40;1.07;;;10.80;99.90;;;;;;5048034;28;20944;-73
2023/01/08 04:24:09;;;;;;;1.00;0.90;;;10.70;99.90;;;;;;5055836;28;20524;-74
2023/01/08 04:26:37;;;;;;;1.80;1.63;;;10.80;99.90;;;;;;5049835;28;20501;-74
2023/01/08 04:29:04;;;;;;;2.43;1.50;;;10.80;99.90;;;;;;5048547;28;20566;-74
2023/01/08 04:31:31;;;;;;;1.23;1.13;;;10.60;99.90;;;;;;5045452;28;20718;-75
2023/01/08 04:33:58;;;;;;;1.90;1.23;;;10.60;99.90;;;;;;5049582;28;20431;-74
2023/01/08 04:36:27;;;;;;;1.20;0.90;;;10.60;99.90;;;;;;5045410;28;20460;-74
2023/01/08 04:38:54;;;;;;;1.27;1.10;;;10.60;99.90;;;;;;5042794;28;20482;-74
2023/01/08 04:41:20;;;;;;;1.73;1.10;;;10.60;99.90;;;;;;5043809;28;20485;-74
2023/01/08 04:43:50;;;;;;;1.20;1.10;;;10.70;99.90;;;;;;5047644;28;20773;-74
2023/01/08 04:46:17;;;;;;;1.30;1.00;;;10.70;99.90;;;;;;5043126;28;20502;-73
2023/01/08 04:48:44;;;;;;;1.20;1.10;;;10.80;99.90;;;;;;5050100;28;20481;-74
2023/01/08 04:51:11;;;;;;;2.57;1.60;;;10.80;99.90;;;;;;5050717;28;20896;-74
2023/01/08 04:53:40;;;;;;;1.30;1.10;;;10.80;99.90;;;;;;5049855;28;20466;-74
2023/01/08 04:56:09;;;;;;;2.70;1.20;;;10.70;99.90;;;;;;5049570;28;20441;-74
2023/01/08 04:58:38;;;;;;;1.00;0.77;;;10.80;99.90;;;;;;5046981;28;20511;-73
2023/01/08 05:01:11;;;;;;;1.10;1.00;;;10.80;99.90;;;;;;5049178;28;20482;-74
2023/01/08 05:03:38;;;;;;;4.07;1.53;;;10.80;99.90;;;;;;5049450;28;20467;-73
2023/01/08 05:06:08;;;;;;;1.77;1.03;;;10.80;99.90;;;;;;5047005;28;20809;-74
2023/01/08 05:08:35;;;;;;;2.50;1.30;;;10.80;99.90;;;;;;5051991;28;20470;-74
2023/01/08 05:11:03;;;;;;;1.70;1.10;;;10.80;99.90;;;;;;5046013;28;20898;-73
2023/01/08 05:13:30;;;;;;;1.70;1.03;;;10.70;99.90;;;;;;5042530;28;20532;-74
2023/01/08 05:15:59;;;;;;;2.00;1.10;;;10.60;99.90;;;;;;5046125;28;20464;-74
2023/01/08 05:18:26;;;;;;;1.27;1.13;;;10.60;99.90;;;;;;5042517;28;20528;-74
2023/01/08 05:20:53;;;;;;;2.43;1.40;;;10.70;99.90;;;;;;5047610;28;20498;-74
2023/01/08 05:23:20;;;;;;;2.53;1.47;;;10.70;99.90;;;;;;5046116;28;20575;-74
2023/01/08 05:25:47;;;;;;;2.47;1.30;;;10.70;99.90;;;;;;5040922;28;20692;-74
2023/01/08 05:28:15;;;;;;;1.10;1.00;;;10.70;99.90;;;;;;5039872;28;20492;-74
2023/01/08 05:30:42;;;;;;;1.10;0.90;;;10.70;99.90;;;;;;5040309;28;20435;-74
2023/01/08 05:33:11;;;;;;;1.00;0.80;;;10.70;99.90;;;;;;5044674;28;20443;-74
2023/01/08 05:35:39;;;;;;;1.10;1.00;;;10.70;99.90;;;;;;5046951;28;20552;-74
2023/01/08 05:38:07;;;;;;;1.43;1.00;;;10.60;99.90;;;;;;5044320;28;20482;-74
2023/01/08 05:40:34;;;;;;;1.57;0.97;;;10.60;99.90;;;;;;5041530;28;28708;-74
2023/01/08 05:43:01;;;;;;;1.50;1.20;;;10.60;99.90;;;;;;5045565;28;20892;-74
2023/01/08 05:45:29;;;;;;;1.20;1.07;;;10.60;99.90;;;;;;5045022;28;20457;-74
2023/01/08 05:47:56;;;;;;;1.10;0.90;;;10.70;99.90;;;;;;5043533;28;20478;-74
2023/01/08 05:50:23;;;;;;;1.63;1.03;;;10.70;99.90;;;;;;5051893;28;20470;-74
2023/01/08 05:52:50;;;;;;;1.00;0.90;;;10.60;99.90;;;;;;5046686;28;20492;-75
2023/01/08 05:55:18;;;;;;;1.30;1.10;;;10.60;99.90;;;;;;5042667;28;20562;-74
2023/01/08 05:57:45;;;;;;;1.20;0.90;;;10.60;99.90;;;;;;5044002;28;21033;-75
2023/01/08 06:00:13;;;;;;;1.07;0.80;;;10.70;99.90;;;;;;5044836;28;20549;-74
2023/01/08 06:02:46;;;;;;;1.77;1.10;;;10.70;99.90;;;;;;5041050;28;20480;-74
2023/01/08 06:05:13;;;;;;;1.20;1.00;;;10.80;99.90;;;;;;5045331;28;20520;-74
2023/01/08 06:07:40;;;;;;;1.17;0.90;;;10.80;99.90;;;;;;5036416;28;20491;-74
2023/01/08 06:10:10;;;;;;;2.37;1.50;;;10.80;99.90;;;;;;5044642;28;20437;-75
2023/01/08 06:12:37;;;;;;;1.93;1.13;;;10.70;99.90;;;;;;5047328;28;20457;-74
2023/01/08 06:15:06;;;;;;;2.10;1.10;;;10.70;99.90;;;;;;5049004;28;20550;-75
2023/01/08 06:17:34;;;;;;;1.13;0.87;;;10.70;99.90;;;;;;5041250;28;20461;-74
2023/01/08 06:20:03;;;;;;;1.57;1.47;;;10.60;99.90;;;;;;5051055;28;20455;-74
2023/01/08 06:22:30;;;;;;;1.30;1.20;;;10.50;99.90;;;;;;5039526;28;20528;-74
2023/01/08 06:24:57;;;;;;;2.00;1.27;;;10.60;99.90;;;;;;5042894;28;20471;-74
2023/01/08 06:27:24;;;;;;;2.00;1.23;;;10.60;99.90;;;;;;5045173;28;20490;-74
2023/01/08 06:29:51;;;;;;;1.27;0.83;;;10.60;99.90;;;;;;5044103;28;20817;-74
2023/01/08 06:32:18;;;;;;;1.23;1.03;;;10.60;99.90;;;;;;5041076;28;20459;-74
2023/01/08 06:34:47;;;;;;;2.60;1.73;;;10.60;99.90;;;;;;5040969;28;20543;-74
2023/01/08 06:37:16;;;;;;;1.97;1.20;;;10.50;99.90;;;;;;5039495;28;20550;-74
2023/01/08 06:39:43;;;;;;;2.03;1.23;;;10.60;99.90;;;;;;5040599;28;20536;-74
2023/01/08 06:42:09;;;;;;;1.47;1.17;;;10.70;99.90;;;;;;5044513;28;20931;-74
2023/01/08 06:44:36;;;;;;;1.30;1.03;;;10.80;99.90;;;;;;5042125;28;20612;-74
2023/01/08 06:47:03;;;;;;;1.50;1.40;;;10.80;99.90;;;;;;5042942;28;21050;-75
2023/01/08 06:49:30;;;;;;;2.50;1.60;;;10.90;99.90;;;;;;5043044;28;20425;-74
2023/01/08 06:51:57;;;;;;;1.40;1.03;;;10.90;99.90;;;;;;5050577;28;20533;-74
2023/01/08 06:54:26;;;;;;;1.30;1.03;;;10.80;99.90;;;;;;5044426;28;21096;-74
2023/01/08 06:56:53;;;;;;;0.90;0.77;;;10.80;99.90;;;;;;5050846;28;20716;-74
2023/01/08 06:59:20;;;;;;;1.90;0.90;;;10.90;99.90;;;;;;5043834;28;20462;-74
2023/01/08 07:01:46;;;;;;;1.30;0.97;;;10.80;99.90;;;;;;5049032;28;20489;-74
2023/01/08 07:04:13;;;;;;;2.23;1.40;;;10.70;99.90;;;;;;5047892;28;20462;-74
2023/01/08 07:06:40;;;;;;;1.07;0.83;;;10.70;99.90;;;;;;5054738;28;20544;-74
2023/01/08 07:09:07;;;;;;;1.50;1.07;;;10.60;99.90;;;;;;5015771;28;20481;-74
2023/01/08 07:11:35;;;;;;;1.37;1.03;;;10.70;99.90;;;;;;5047409;28;20474;-74
2023/01/08 07:14:02;;;;;;;1.10;0.83;;;10.70;99.90;;;;;;5058601;28;20480;-73
2023/01/08 07:16:29;;;;;;;1.00;0.90;;;10.80;99.90;;;;;;5016222;28;20453;-74
2023/01/08 07:18:56;;;;;;;1.30;0.90;;;10.80;99.90;;;;;;5055490;28;20924;-74
2023/01/08 07:21:23;;;;;;;2.20;1.23;;;10.90;99.90;;;;;;5053531;28;20515;-73
2023/01/08 07:23:50;;;;;;;2.13;1.47;;;10.80;99.90;;;;;;5018560;28;20541;-73
2023/01/08 07:26:17;;;;;;;2.23;1.50;;;10.80;99.90;;;;;;5050451;28;20550;-73
2023/01/08 07:28:45;;;;;;;2.47;1.97;;;10.80;99.90;;;;;;5045254;28;20457;-73
2023/01/08 07:31:12;;;;;;;1.83;1.40;;;10.50;99.90;;;;;;5047934;28;20458;-73
2023/01/08 07:33:39;;;;;;;1.20;0.93;;;10.30;99.90;;;;;;5046283;28;20485;-74
2023/01/08 07:36:07;;;;;;;1.30;1.10;;;10.00;99.90;;;;;;5053720;28;20444;-73
2023/01/08 07:38:35;;;;;;;1.10;0.97;;;9.90;99.90;;;;;;5054581;28;20880;-73
2023/01/08 07:41:01;;;;;;;1.67;1.23;;;9.90;99.90;;;;;;5052371;28;20444;-73
2023/01/08 07:43:29;;;;;;;2.40;1.03;;;9.90;99.90;;;;;;5054133;28;20416;-74
2023/01/08 07:45:57;;;;;;;1.13;0.90;;;9.80;99.90;;;;;;5056202;28;20812;-73
2023/01/08 07:48:25;;;;;;;1.00;0.83;;;9.80;99.90;;;;;;5044936;28;20576;-74
2023/01/08 07:50:51;;;;;;;1.00;0.80;;;9.80;99.90;;;;;;5048050;28;20427;-74
2023/01/08 07:53:18;;;;;;;2.80;2.60;;;9.80;99.90;;;;;;5042713;28;20459;-73
2023/01/08 07:55:46;;;;;;;1.53;1.10;;;9.90;99.90;;;;;;5046883;28;20440;-73
2023/01/08 07:58:14;;;;;;;8.03;3.27;;;9.90;99.90;;;;;;5045314;28;20463;-74
2023/01/08 08:00:42;;;;;;;4.73;1.43;;;9.80;99.90;;;;;;5047962;28;20810;-74
2023/01/08 08:03:11;;;;;;;1.77;1.17;;;9.80;99.90;;;;;;5040539;28;20543;-74
2023/01/08 08:05:40;;;;;;;3.60;2.60;;;9.70;99.90;;;;;;5047132;28;20440;-74
2023/01/08 08:08:10;;;;;;;4.03;1.50;;;9.70;99.90;;;;;;5047129;28;20674;-74
2023/01/08 08:10:38;;;;;;;1.87;1.23;;;9.70;99.90;;;;;;5050794;28;20443;-74
2023/01/08 08:13:05;;;;;;;3.03;1.40;;;9.60;99.90;;;;;;5047180;28;20533;-74
2023/01/08 08:15:33;;;;;;;11.17;1.97;;;9.50;99.90;;;;;;5044608;28;21127;-74
2023/01/08 08:18:00;;;;;;;5.13;2.70;;;9.60;99.90;;;;;;5043275;28;20455;-74
2023/01/08 08:20:29;;;;;;;2.53;1.50;;;9.60;99.90;;;;;;5046661;28;20473;-74
2023/01/08 08:23:00;;;;;;;1.90;1.27;;;9.60;99.90;;;;;;5045590;28;20485;-74
2023/01/08 08:25:28;;;;;;;1.20;1.00;;;9.60;99.90;;;;;;5049339;28;20459;-73
2023/01/08 08:27:57;;;;;;;2.90;1.30;;;9.50;99.90;;;;;;5040084;28;20565;-74
2023/01/08 08:30:27;;;;;;;1.83;1.73;;;9.50;99.90;;;;;;5044563;28;20449;-74
2023/01/08 08:32:54;;;;;;;5.47;2.57;;;9.40;99.90;;;;;;5041844;28;20716;-74
2023/01/08 08:35:21;;;;;;;3.43;1.57;;;9.40;99.90;;;;;;5050961;28;20548;-75
2023/01/08 08:37:50;;;;;;;3.40;2.47;;;9.50;99.90;;;;;;5045461;28;20480;-74
2023/01/08 08:40:17;;;;;;;1.63;1.40;;;9.50;99.90;;;;;;5046614;28;20579;-74
2023/01/08 08:42:44;;;;;;;0.90;0.70;;;9.60;99.90;;;;;;5046958;28;20580;-74
2023/01/08 08:45:11;;;;;;;1.00;0.80;;;9.60;99.90;;;;;;5045223;28;20799;-76
2023/01/08 08:47:38;;;;;;;10.10;2.60;;;9.60;99.90;;;;;;5045769;28;20971;-74
2023/01/08 08:50:06;;;;;;;1.57;1.00;;;9.70;99.90;;;;;;5044111;28;20463;-74
2023/01/08 08:52:36;;;;;;;2.10;1.20;;;9.70;99.90;;;;;;5036008;28;20952;-75
2023/01/08 08:55:05;;;;;;;1.40;1.07;;;9.70;99.90;;;;;;5045940;28;20492;-74
2023/01/08 08:57:32;;;;;;;1.63;1.53;;;9.60;99.90;;;;;;5046012;28;20603;-74
2023/01/08 09:00:00;;;;;;;1.00;0.70;;;9.70;99.90;;;;;;5046483;28;20524;-74
2023/01/08 09:02:27;;;;;;;3.90;1.57;;;9.70;99.90;;;;;;5043557;28;21031;-75
2023/01/08 09:04:54;;;;;;;1.00;0.80;;;9.90;99.90;;;;;;5041919;28;20433;-74
2023/01/08 09:07:22;;;;;;;1.00;0.80;;;10.00;99.90;;;;;;5044620;28;20837;-74
2023/01/08 09:09:49;;;;;;;2.87;1.83;;;10.00;99.90;;;;;;5043252;28;20477;-74
2023/01/08 09:12:17;;;;;;;3.20;1.27;;;10.00;99.90;;;;;;5045609;28;20619;-74
2023/01/08 09:14:44;;;;;;;2.40;0.80;;;10.00;99.90;;;;;;5042420;28;20861;-74
2023/01/08 09:17:12;;;;;;;3.40;1.53;;;9.90;99.90;;;;;;5048674;28;20788;-74
2023/01/08 09:19:38;;;;;;;1.73;1.07;;;10.00;99.90;;;;;;5046003;28;20468;-74
2023/01/08 09:22:05;;;;;;;1.70;0.93;;;10.10;99.90;;;;;;5045955;28;20460;-74
2023/01/08 09:24:32;;;;;;;2.97;2.77;;;10.70;99.90;;;;;;5036561;28;20451;-75
2023/01/08 09:26:59;;;;;;;6.30;1.23;;;11.40;99.90;;;;;;5042502;28;20480;-74
2023/01/08 09:29:28;;;;;;;7.60;1.30;;;11.90;99.90;;;;;;5043808;28;20532;-75
2023/01/08 09:31:54;;;;;;;2.00;1.10;;;11.90;99.90;;;;;;5043288;28;20970;-74
2023/01/08 09:34:21;;;;;;;4.30;1.30;;;11.90;99.90;;;;;;5048301;28;20520;-74
2023/01/08 09:36:48;;;;;;;2.30;0.90;;;11.80;99.90;;;;;;5044435;28;20850;-74
2023/01/08 09:39:15;;;;;;;1.20;1.03;;;11.70;99.90;;;;;;5044758;28;20477;-75
2023/01/08 09:41:45;;;;;;;1.20;1.00;;;11.50;99.90;;;;;;5011898;28;20498;-74
2023/01/08 09:44:18;;;;;;;3.80;0.87;;;11.40;99.90;;;;;;5040543;28;20457;-74
2023/01/08 09:46:47;;;;;;;3.23;1.57;;;11.30;99.90;;;;;;5042668;28;20563;-75
2023/01/08 09:49:21;;;;;;;1.87;1.10;;;11.20;99.90;;;;;;5045756;28;20464;-75
2023/01/08 09:51:49;;;;;;;4.50;1.40;;;11.10;99.90;;;;;;5042849;28;20505;-74
2023/01/08 09:54:17;;;;;;;2.57;1.10;;;11.10;99.90;;;;;;5041709;28;20462;-74
2023/01/08 09:56:45;;;;;;;1.47;0.93;;;11.30;99.90;;;;;;5045763;28;20465;-75
2023/01/08 09:59:16;;;;;;;1.20;0.80;;;11.70;99.90;;;;;;5053260;28;20479;-75
2023/01/08 10:01:44;;;;;;;1.40;1.07;;;12.50;99.90;;;;;;5043766;28;20553;-75
2023/01/08 10:04:15;;;;;;;5.40;1.00;;;13.20;99.90;;;;;;5042193;28;20488;-74
2023/01/08 10:06:48;;;;;;;1.30;0.87;;;12.90;99.90;;;;;;5042493;28;20803;-74
2023/01/08 10:09:15;;;;;;;3.23;1.33;;;12.10;99.90;;;;;;5040390;28;20538;-74
2023/01/08 10:11:46;;;;;;;1.67;1.03;;;11.80;99.90;;;;;;5041259;28;20656;-74
2023/01/08 10:14:22;;;;;;;3.47;1.50;;;11.70;99.90;;;;;;5027386;28;20451;-74
2023/01/08 10:16:53;;;;;;;1.83;1.10;;;11.50;99.90;;;;;;5043034;28;20520;-74
2023/01/08 10:19:22;;;;;;;2.80;1.10;;;11.60;99.90;;;;;;5043227;28;20885;-74
2023/01/08 10:21:49;;;;;;;5.23;1.30;;;11.70;99.90;;;;;;5044955;28;20470;-74
2023/01/08 10:24:16;;;;;;;3.00;1.40;;;12.00;99.90;;;;;;5040340;28;20464;-74
2023/01/08 10:26:42;;;;;;;1.93;0.80;;;12.10;99.90;;;;;;5043079;28;20700;-74
2023/01/08 10:29:12;;;;;;;1.60;1.13;;;11.80;99.90;;;;;;5036874;28;20514;-74
2023/01/08 10:31:50;;;;;;;1.13;0.90;;;11.80;99.90;;;;;;5040307;28;20531;-74
2023/01/08 10:34:26;;;;;;;1.00;0.70;;;11.70;99.90;;;;;;5042878;28;20502;-74
2023/01/08 10:36:55;;;;;;;1.20;0.90;;;11.50;99.90;;;;;;5042844;28;21002;-74
2023/01/08 10:39:26;;;;;;;6.93;1.20;;;11.40;99.90;;;;;;5042902;28;20466;-74
2023/01/08 10:41:56;;;;;;;3.60;1.40;;;11.50;99.90;;;;;;5043141;28;20459;-74
2023/01/08 10:44:25;;;;;;;0.90;0.70;;;11.60;99.90;;;;;;5048605;28;20525;-74
2023/01/08 10:46:56;;;;;;;1.43;1.00;;;11.70;99.90;;;;;;5042945;28;20436;-75
2023/01/08 10:49:32;;;;;;;1.40;1.03;;;11.80;99.90;;;;;;5044383;28;20487;-75
2023/01/08 10:52:00;;;;;;;2.27;1.90;;;11.70;99.90;;;;;;5044312;28;20465;-75
2023/01/08 10:54:34;;;;;;;1.50;1.00;;;11.90;99.90;;;;;;5044807;28;20544;-74
2023/01/08 10:57:01;;;;;;;4.97;1.43;;;12.00;99.90;;;;;;5047178;28;20542;-74
2023/01/08 10:59:30;;;;;;;1.80;1.30;;;12.10;99.90;;;;;;5044588;28;20448;-75
2023/01/08 11:01:58;;;;;;;1.40;0.80;;;12.00;99.90;;;;;;5044156;28;20476;-74
2023/01/08 11:04:32;;;;;;;3.23;1.23;;;11.90;99.90;;;;;;5008613;28;20477;-74
2023/01/08 11:07:01;;;;;;;1.00;0.80;;;11.80;99.90;;;;;;5047849;28;20468;-75
2023/01/08 11:09:32;;;;;;;6.03;1.73;;;11.70;99.90;;;;;;5048501;28;20523;-75
2023/01/08 11:12:00;;;;;;;1.80;1.40;;;11.70;99.90;;;;;;5041049;28;20470;-75
2023/01/08 11:14:30;;;;;;;1.00;0.80;;;11.70;99.90;;;;;;5041654;28;20484;-74
2023/01/08 11:16:59;;;;;;;2.00;1.90;;;11.60;99.90;;;;;;5045640;28;20445;-75
2023/01/08 11:19:29;;;;;;;1.30;1.10;;;11.50;99.90;;;;;;5043286;28;20462;-75
2023/01/08 11:21:58;;;;;;;2.40;1.10;;;11.60;99.90;;;;;;5053933;28;20451;-75
2023/01/08 11:24:31;;;;;;;1.37;1.03;;;11.60;99.90;;;;;;5006745;28;20816;-75
2023/01/08 11:27:05;;;;;;;2.00;1.07;;;11.60;99.90;;;;;;5049147;28;20466;-75
2023/01/08 11:29:41;;;;;;;1.00;0.73;;;11.70;99.90;;;;;;5021791;28;20812;-74
2023/01/08 11:32:41;;;;;;;1.20;1.03;;;11.80;99.90;;;;;;5041074;28;20536;-75
2023/01/08 11:35:17;;;;;;;1.10;0.90;;;11.80;99.90;;;;;;5041302;28;20545;-75
2023/01/08 11:37:51;;;;;;;1.30;1.00;;;11.90;99.90;;;;;;5041360;28;20749;-75
2023/01/08 11:40:21;;;;;;;1.40;1.10;;;12.00;99.90;;;;;;5007734;28;20438;-75
2023/01/08 11:43:16;;;;;;;1.10;0.80;;;12.20;99.90;;;;;;5040945;28;21044;-75
2023/01/08 11:45:58;;;;;;;1.53;1.20;;;12.20;99.90;;;;;;5043544;28;20867;-75
2023/01/08 11:48:39;;;;;;;1.97;1.57;;;12.40;99.90;;;;;;5040343;28;20547;-75
2023/01/08 11:51:29;;;;;;;2.07;1.23;;;12.20;99.90;;;;;;5039358;28;20538;-75
2023/01/08 11:54:05;;;;;;;1.37;0.80;;;12.20;99.90;;;;;;5044479;28;20451;-73
2023/01/08 11:56:47;;;;;;;2.60;1.20;;;12.40;99.90;;;;;;5042259;28;20499;-74
2023/01/08 11:59:24;;;;;;;3.53;1.00;;;12.60;99.90;;;;;;5046289;28;21029;-74
2023/01/08 12:02:01;;;;;;;3.67;1.53;;;12.90;99.90;;;;;;5044193;28;20488;-74
2023/01/08 12:05:01;;;;;;;2.60;0.90;;;12.60;99.90;;;;;;5049417;28;20474;-74
2023/01/08 12:07:37;;;;;;;1.80;0.97;;;12.40;99.90;;;;;;5044779;28;20494;-73
2023/01/08 12:10:14;;;;;;;1.67;1.03;;;12.30;99.90;;;;;;5047101;28;20425;-75
2023/01/08 12:12:52;;;;;;;1.40;0.90;;;12.20;99.90;;;;;;5045831;28;20846;-75
2023/01/08 12:15:28;;;;;;;1.10;0.80;;;12.10;99.90;;;;;;5053928;28;20454;-74
2023/01/08 12:18:25;;;;;;;1.57;0.90;;;12.10;99.90;;;;;;5049044;28;21012;-74
2023/01/08 12:21:00;;;;;;;6.10;3.03;;;12.00;99.90;;;;;;5028149;28;20585;-74
2023/01/08 12:23:48;;;;;;;1.40;1.10;;;12.10;99.90;;;;;;5043499;28;20653;-74
2023/01/08 12:26:24;;;;;;;1.30;0.93;;;12.10;99.90;;;;;;5045071;28;20581;-79
2023/01/08 12:29:17;;;;;;;1.43;0.80;;;12.20;99.90;;;;;;5046558;28;20483;-75
2023/01/08 12:32:17;;;;;;;1.20;0.90;;;12.30;99.90;;;;;;5039948;28;20508;-75
2023/01/08 12:34:52;;;;;;;1.20;0.70;;;12.40;99.90;;;;;;5047515;28;20539;-75
2023/01/08 12:37:25;;;;;;;2.70;0.90;;;12.30;99.90;;;;;;5045042;28;20487;-73
2023/01/08 12:40:03;;;;;;;3.57;1.00;;;12.20;99.90;;;;;;5014659;28;20452;-75
2023/01/08 12:42:32;;;;;;;3.77;0.90;;;12.20;99.90;;;;;;5055844;28;20505;-75
2023/01/08 12:45:02;;;;;;;1.00;0.80;;;12.30;99.90;;;;;;5052506;28;20495;-75
2023/01/08 12:47:33;;;;;;;1.10;1.00;;;12.30;99.90;;;;;;5040779;28;20491;-75
2023/01/08 12:50:16;;;;;;;1.50;1.10;;;12.20;99.90;;;;;;5045765;28;20494;-75
2023/01/08 12:52:50;;;;;;;1.30;1.00;;;12.10;99.90;;;;;;5049288;28;21059;-73
2023/01/08 12:55:29;;;;;;;1.20;1.10;;;12.10;99.90;;;;;;5045941;28;20467;-73
2023/01/08 12:58:07;;;;;;;1.00;0.80;;;12.00;99.90;;;;;;5048865;28;20565;-74
2023/01/08 13:00:39;;;;;;;0.90;0.60;;;10.90;99.90;;;;;;5043837;28;20485;-74
2023/01/08 13:03:14;;;;;;;1.07;0.90;;;9.80;99.90;;;;;;5016705;28;20544;-74